Time;durP1;ratioP1;P1;durP2;ratioP2;P2;SDS_P1;SDS_P2;PMS_P1;PMS_P2;Temp;Humidity;BMP_temperature;BMP_pressure;BME280_temperature;BME280_humidity;BME280_pressure;Samples;Min_cycle;Max_cycle;Signal;HPM_P1;HPM_P2
2023/01/23 00:01:28;;;;;;;23.33;14.48;;;3.40;99.90;;;;;;4972410;28;20043;-75
2023/01/23 00:03:57;;;;;;;23.50;15.82;;;3.40;99.90;;;;;;4981187;28;20042;-75
2023/01/23 00:06:25;;;;;;;33.10;19.08;;;3.30;1.00;;;;;;4970436;28;20122;-78
2023/01/23 00:08:55;;;;;;;37.67;23.95;;;3.40;99.90;;;;;;4973385;28;20046;-77
2023/01/23 00:11:24;;;;;;;39.53;25.33;;;3.30;99.90;;;;;;4955158;28;20115;-75
2023/01/23 00:13:51;;;;;;;45.25;27.00;;;3.30;1.00;;;;;;4977468;28;20054;-75
2023/01/23 00:16:20;;;;;;;52.47;28.67;;;3.30;1.00;;;;;;4971270;28;20067;-75
2023/01/23 00:18:49;;;;;;;47.88;28.15;;;3.30;99.90;;;;;;4969388;28;20070;-76
2023/01/23 00:21:19;;;;;;;34.28;22.10;;;3.30;1.00;;;;;;4959655;28;20443;-75
2023/01/23 00:23:48;;;;;;;37.90;22.33;;;3.40;99.90;;;;;;4969349;28;20653;-74
2023/01/23 00:26:17;;;;;;;31.05;20.20;;;3.40;99.90;;;;;;4970869;28;20070;-75
2023/01/23 00:28:46;;;;;;;32.30;20.92;;;3.40;1.00;;;;;;4969638;28;20043;-75
2023/01/23 00:31:19;;;;;;;36.00;21.50;;;3.40;1.00;;;;;;4967992;28;20050;-75
2023/01/23 00:33:54;;;;;;;42.78;24.02;;;3.40;99.90;;;;;;4977461;28;20054;-76
2023/01/23 00:36:25;;;;;;;55.63;33.30;;;3.40;1.00;;;;;;4969722;28;20034;-77
2023/01/23 00:38:56;;;;;;;64.18;40.25;;;3.50;1.00;;;;;;4983334;28;20057;-74
2023/01/23 00:41:23;;;;;;;63.05;37.17;;;3.50;1.00;;;;;;4952801;28;20082;-75
2023/01/23 00:43:51;;;;;;;59.28;33.53;;;3.50;1.00;;;;;;4969514;28;20049;-76
2023/01/23 00:46:19;;;;;;;49.53;30.15;;;3.50;1.00;;;;;;4953583;28;20146;-77
2023/01/23 00:48:47;;;;;;;53.60;31.15;;;3.50;1.00;;;;;;4952705;28;20043;-77
2023/01/23 00:51:15;;;;;;;46.35;29.00;;;3.50;1.00;;;;;;4970007;28;20133;-76
2023/01/23 00:53:44;;;;;;;46.47;27.50;;;3.50;1.00;;;;;;4952482;28;20578;-77
2023/01/23 00:56:12;;;;;;;38.25;23.63;;;3.50;1.00;;;;;;4950560;28;20581;-77
2023/01/23 00:58:40;;;;;;;33.55;20.92;;;3.50;1.00;;;;;;4953157;28;20119;-74
2023/01/23 01:01:09;;;;;;;34.63;22.17;;;3.50;1.00;;;;;;4969239;28;20134;-77
2023/01/23 01:03:37;;;;;;;34.05;21.73;;;3.40;1.00;;;;;;4944778;28;20628;-76
2023/01/23 01:06:05;;;;;;;45.03;29.27;;;3.40;1.00;;;;;;4944293;28;20046;-75
2023/01/23 01:08:32;;;;;;;49.83;30.08;;;3.30;1.00;;;;;;4968761;28;20078;-77
2023/01/23 01:11:01;;;;;;;49.80;30.73;;;3.30;1.00;;;;;;4970027;28;20047;-77
2023/01/23 01:13:29;;;;;;;43.88;29.13;;;3.20;1.00;;;;;;4958306;28;20074;-76
2023/01/23 01:16:00;;;;;;;43.45;28.70;;;3.20;37.40;;;;;;4970937;28;20046;-77
2023/01/23 01:18:29;;;;;;;40.45;27.88;;;3.10;99.90;;;;;;4969357;28;20059;-75
2023/01/23 01:20:57;;;;;;;44.88;28.70;;;3.10;99.90;;;;;;4952719;28;20074;-75
2023/01/23 01:23:24;;;;;;;37.70;25.50;;;3.20;99.90;;;;;;4977262;28;20057;-75
2023/01/23 01:25:52;;;;;;;43.05;29.00;;;3.30;99.90;;;;;;4976365;28;20051;-76
2023/01/23 01:28:22;;;;;;;49.38;33.72;;;3.40;99.90;;;;;;4953333;28;20043;-75
2023/01/23 01:30:50;;;;;;;41.90;29.85;;;3.40;99.90;;;;;;4968041;28;20051;-76
2023/01/23 01:33:17;;;;;;;42.00;30.33;;;3.50;99.90;;;;;;4970393;28;20511;-75
2023/01/23 01:35:45;;;;;;;53.60;32.47;;;3.50;99.90;;;;;;4944142;28;20043;-76
2023/01/23 01:38:12;;;;;;;45.58;31.05;;;3.40;99.90;;;;;;4944146;28;20049;-76
2023/01/23 01:40:40;;;;;;;43.75;31.85;;;3.40;99.90;;;;;;4969892;28;20047;-76
2023/01/23 01:43:17;;;;;;;40.95;29.00;;;3.50;99.90;;;;;;4970311;28;20042;-74
2023/01/23 01:46:09;;;;;;;37.03;26.38;;;3.50;99.90;;;;;;4957458;28;20049;-76
2023/01/23 01:48:45;;;;;;;28.02;20.25;;;3.60;99.90;;;;;;4951130;28;20058;-75
2023/01/23 01:51:22;;;;;;;31.67;20.40;;;3.60;99.90;;;;;;4974701;28;20070;-77
2023/01/23 01:53:55;;;;;;;26.88;18.60;;;3.60;99.90;;;;;;4955117;28;20093;-74
2023/01/23 01:56:23;;;;;;;30.45;17.88;;;3.60;1.00;;;;;;4972202;28;20054;-76
2023/01/23 01:58:53;;;;;;;30.35;18.42;;;3.60;1.00;;;;;;4955693;28;20047;-75
2023/01/23 02:01:22;;;;;;;26.02;15.68;;;3.60;1.00;;;;;;4967505;28;20047;-75
2023/01/23 02:03:51;;;;;;;24.45;16.75;;;3.60;99.90;;;;;;4970871;28;20143;-76
2023/01/23 02:06:20;;;;;;;39.83;21.35;;;3.50;1.00;;;;;;4972098;28;20043;-75
2023/01/23 02:08:52;;;;;;;42.33;25.77;;;3.50;1.00;;;;;;4955745;28;20066;-75
2023/01/23 02:11:20;;;;;;;35.53;21.98;;;3.50;1.00;;;;;;4959309;28;20074;-75
2023/01/23 02:13:50;;;;;;;30.02;17.20;;;3.50;1.00;;;;;;4983083;28;20554;-76
2023/01/23 02:16:21;;;;;;;27.08;16.42;;;3.50;1.00;;;;;;4972436;28;20061;-75
2023/01/23 02:18:53;;;;;;;20.58;12.23;;;3.60;1.00;;;;;;4974495;28;20038;-75
2023/01/23 02:21:24;;;;;;;23.35;14.60;;;3.50;1.00;;;;;;4978712;28;20402;-76
2023/01/23 02:24:10;;;;;;;26.42;16.73;;;3.50;93.60;;;;;;4962803;28;20051;-76
2023/01/23 02:26:42;;;;;;;18.95;12.48;;;3.50;15.70;;;;;;4956138;28;20053;-76
2023/01/23 02:29:12;;;;;;;23.60;13.50;;;3.40;1.00;;;;;;4950586;28;20050;-75
2023/01/23 02:31:46;;;;;;;18.02;10.60;;;3.40;1.00;;;;;;4955766;28;20105;-76
2023/01/23 02:34:15;;;;;;;25.27;17.00;;;3.30;1.00;;;;;;4965791;23;20219;-82
2023/01/23 02:36:47;;;;;;;32.72;20.58;;;3.30;99.90;;;;;;4957761;28;20102;-80
2023/01/23 02:39:16;;;;;;;32.72;21.77;;;3.40;1.00;;;;;;4952993;28;20063;-80
2023/01/23 02:41:50;;;;;;;38.78;25.83;;;3.60;1.00;;;;;;4969497;28;20047;-79
2023/01/23 02:44:25;;;;;;;37.78;23.98;;;3.60;1.00;;;;;;4966769;28;20042;-80
2023/01/23 02:46:56;;;;;;;39.75;24.10;;;3.60;1.00;;;;;;4965911;28;20134;-80
2023/01/23 02:49:27;;;;;;;37.95;24.85;;;3.50;1.00;;;;;;4963849;28;20046;-79
2023/01/23 02:51:56;;;;;;;37.28;23.40;;;3.40;1.00;;;;;;4965394;28;20046;-79
2023/01/23 02:54:25;;;;;;;38.60;24.50;;;3.40;99.90;;;;;;4973097;28;20050;-79
2023/01/23 02:56:54;;;;;;;38.28;23.92;;;3.40;99.90;;;;;;4978402;28;20067;-79
2023/01/23 03:02:09;;;;;;;29.45;19.17;;;3.40;99.90;;;;;;4990325;28;20062;-80
2023/01/23 03:04:37;;;;;;;39.30;22.98;;;3.50;99.90;;;;;;4968737;28;20043;-78
2023/01/23 03:07:04;;;;;;;32.90;21.52;;;3.60;99.90;;;;;;4971355;28;20042;-81
2023/01/23 03:09:32;;;;;;;36.95;21.90;;;3.70;99.90;;;;;;4979090;28;20043;-79
2023/01/23 03:12:01;;;;;;;26.67;17.60;;;3.80;99.90;;;;;;4975959;28;20219;-80
2023/01/23 03:14:31;;;;;;;29.30;17.58;;;3.80;99.90;;;;;;4968117;28;20051;-79
2023/01/23 03:16:59;;;;;;;29.33;19.02;;;3.80;1.00;;;;;;4982149;28;20326;-80
2023/01/23 03:19:31;;;;;;;32.20;19.70;;;3.80;1.00;;;;;;4979125;28;20050;-79
2023/01/23 03:21:59;;;;;;;32.35;18.67;;;3.80;1.00;;;;;;4980740;28;20051;-80
2023/01/23 03:24:27;;;;;;;28.95;19.38;;;3.80;1.00;;;;;;4976934;28;20062;-80
2023/01/23 03:26:54;;;;;;;37.42;23.23;;;3.90;1.00;;;;;;4977086;28;20502;-80
2023/01/23 03:32:16;;;;;;;37.78;24.48;;;3.90;1.00;;;;;;5003502;28;20058;-80
2023/01/23 03:34:45;;;;;;;37.90;23.42;;;4.00;1.00;;;;;;4980953;28;20035;-80
2023/01/23 03:37:13;;;;;;;33.88;22.38;;;4.00;1.00;;;;;;4996167;28;20042;-80
2023/01/23 03:42:33;;;;;;;35.22;22.83;;;4.00;99.90;;;;;;4984986;28;20031;-81
2023/01/23 03:45:05;;;;;;;40.83;25.38;;;4.00;99.90;;;;;;4984385;28;20043;-80
2023/01/23 03:47:35;;;;;;;45.15;27.95;;;3.90;99.90;;;;;;5004229;28;20051;-80
2023/01/23 03:50:03;;;;;;;45.97;27.20;;;3.80;31.40;;;;;;5001998;28;20067;-81
2023/01/23 03:52:37;;;;;;;43.53;26.33;;;3.80;1.00;;;;;;4994406;28;20047;-80
2023/01/23 03:55:05;;;;;;;42.08;27.20;;;3.80;1.00;;;;;;4974501;28;20079;-80
2023/01/23 03:57:33;;;;;;;54.55;31.13;;;3.90;1.00;;;;;;4968827;28;20047;-80
2023/01/23 04:00:15;;;;;;;93.00;50.30;;;3.90;1.00;;;;;;4964566;28;20044;-79
2023/01/23 04:02:48;;;;;;;88.03;54.60;;;4.00;1.00;;;;;;4974565;28;20121;-78
2023/01/23 04:05:17;;;;;;;89.00;55.78;;;4.00;1.00;;;;;;4980761;28;20047;-78
2023/01/23 04:07:45;;;;;;;83.70;53.33;;;4.00;1.00;;;;;;4984144;28;20050;-78
2023/01/23 04:10:14;;;;;;;94.22;55.65;;;4.00;1.00;;;;;;4980725;28;20043;-79
2023/01/23 04:12:43;;;;;;;93.15;57.13;;;4.00;1.00;;;;;;4985738;28;20057;-79
2023/01/23 04:15:14;;;;;;;83.22;52.65;;;4.00;99.90;;;;;;5008524;28;20062;-79
2023/01/23 04:17:42;;;;;;;92.55;52.17;;;4.00;1.00;;;;;;4991645;28;20041;-79
2023/01/23 04:20:13;;;;;;;87.97;57.25;;;4.00;1.00;;;;;;4972972;28;20106;-79
2023/01/23 04:22:42;;;;;;;96.63;59.08;;;4.00;1.00;;;;;;4964842;28;20047;-79
2023/01/23 04:25:10;;;;;;;77.18;48.33;;;4.10;1.00;;;;;;4964205;28;20136;-79
2023/01/23 04:27:39;;;;;;;81.43;45.15;;;4.10;1.00;;;;;;4965756;28;20062;-79
2023/01/23 04:30:10;;;;;;;74.20;42.03;;;4.20;1.00;;;;;;4972495;28;20051;-79
2023/01/23 04:32:39;;;;;;;71.30;43.53;;;4.20;99.90;;;;;;4968467;28;20046;-78
2023/01/23 04:35:07;;;;;;;75.03;45.13;;;4.20;99.90;;;;;;4972602;28;20054;-80
2023/01/23 04:37:37;;;;;;;65.32;39.42;;;4.30;99.90;;;;;;4960695;28;20114;-78
2023/01/23 04:40:06;;;;;;;72.43;41.17;;;4.30;99.90;;;;;;4961284;28;20107;-78
2023/01/23 04:42:43;;;;;;;66.63;40.72;;;4.30;99.90;;;;;;4989195;28;20415;-79
2023/01/23 04:45:19;;;;;;;67.05;39.67;;;4.30;1.00;;;;;;4970009;28;20042;-79
2023/01/23 04:48:20;;;;;;;68.50;38.25;;;4.30;1.00;;;;;;4985678;28;20043;-79
2023/01/23 04:50:49;;;;;;;66.50;37.78;;;4.20;99.90;;;;;;4964022;28;20043;-78
2023/01/23 04:53:16;;;;;;;66.05;36.92;;;4.20;99.90;;;;;;4968358;28;20406;-79
2023/01/23 04:55:48;;;;;;;67.72;40.47;;;4.10;1.00;;;;;;4969210;28;20102;-79
2023/01/23 04:58:18;;;;;;;66.32;38.50;;;3.90;99.90;;;;;;4977850;28;20043;-79
2023/01/23 05:00:46;;;;;;;66.30;40.28;;;3.90;1.00;;;;;;4969607;28;20063;-77
2023/01/23 05:03:15;;;;;;;82.03;48.30;;;4.00;1.00;;;;;;4950127;29;20047;-79
2023/01/23 05:05:48;;;;;;;77.60;51.28;;;4.00;1.00;;;;;;4969085;28;20101;-78
2023/01/23 05:08:16;;;;;;;85.50;51.83;;;4.10;1.00;;;;;;4969965;28;20073;-79
2023/01/23 05:10:50;;;;;;;74.63;47.85;;;4.20;1.00;;;;;;4971476;28;20487;-79
2023/01/23 05:13:19;;;;;;;74.38;46.55;;;4.20;1.00;;;;;;4966954;28;20138;-78
2023/01/23 05:15:48;;;;;;;77.95;47.63;;;4.20;1.00;;;;;;4964888;28;20140;-80
2023/01/23 05:18:16;;;;;;;80.47;47.80;;;4.30;1.00;;;;;;4967273;28;20047;-79
2023/01/23 05:20:47;;;;;;;76.15;45.50;;;4.30;1.00;;;;;;4987024;28;20075;-79
2023/01/23 05:23:15;;;;;;;73.95;43.28;;;4.30;99.90;;;;;;4987102;28;20066;-80
2023/01/23 05:25:50;;;;;;;73.68;42.60;;;4.30;1.00;;;;;;4988777;28;20107;-81
2023/01/23 05:28:47;;;;;;;75.18;39.53;;;4.40;1.00;;;;;;4993998;28;20047;-79
2023/01/23 05:31:15;;;;;;;65.45;36.35;;;4.40;99.90;;;;;;4985877;28;20071;-80
2023/01/23 05:33:54;;;;;;;61.30;37.08;;;4.30;1.00;;;;;;5001724;28;20071;-79
2023/01/23 05:36:23;;;;;;;66.25;36.10;;;4.10;99.90;;;;;;4976306;28;20043;-79
2023/01/23 05:38:50;;;;;;;62.10;37.40;;;4.10;1.00;;;;;;4980287;28;20039;-79
2023/01/23 05:41:19;;;;;;;62.08;37.72;;;4.00;99.90;;;;;;4968215;28;20451;-79
2023/01/23 05:44:09;;;;;;;64.25;33.83;;;4.00;99.90;;;;;;4970688;28;20035;-80
2023/01/23 05:46:48;;;;;;;64.15;39.22;;;4.00;99.90;;;;;;4969569;28;20512;-80
2023/01/23 05:49:16;;;;;;;64.18;37.17;;;3.90;1.00;;;;;;4969497;28;20035;-80
2023/01/23 05:51:45;;;;;;;65.72;36.55;;;4.00;1.00;;;;;;4972464;28;20050;-81
2023/01/23 05:54:14;;;;;;;60.72;37.17;;;4.00;99.90;;;;;;4974653;28;20106;-80
2023/01/23 05:56:45;;;;;;;66.25;36.92;;;4.10;1.00;;;;;;4982350;28;20043;-80
2023/01/23 05:59:31;;;;;;;;;;;4.10;99.90;;;;;;4981897;28;20054;-80
2023/01/23 06:02:17;;;;;;;61.75;38.33;;;4.20;1.00;;;;;;4971618;28;19929;-81
2023/01/23 06:04:48;;;;;;;77.65;47.45;;;4.20;1.00;;;;;;4975829;28;20130;-81
2023/01/23 06:07:27;;;;;;;67.82;44.70;;;4.30;1.00;;;;;;4968389;28;20074;-79
2023/01/23 06:09:58;;;;;;;68.47;40.83;;;4.30;21.10;;;;;;4971217;28;20079;-81
2023/01/23 06:12:26;;;;;;;83.68;47.05;;;4.30;1.00;;;;;;4980421;28;20070;-80
2023/01/23 06:14:53;;;;;;;127.25;72.45;;;4.30;1.00;;;;;;4964792;28;20495;-81
2023/01/23 06:17:21;;;;;;;105.50;62.00;;;4.30;1.00;;;;;;4969558;28;20129;-80
2023/01/23 06:19:49;;;;;;;66.43;38.97;;;4.30;1.00;;;;;;4965644;28;20089;-79
2023/01/23 06:22:17;;;;;;;84.55;48.58;;;4.30;1.00;;;;;;4969294;28;20051;-83
2023/01/23 06:25:10;;;;;;;158.82;78.88;;;4.30;99.90;;;;;;4983299;28;20047;-80
2023/01/23 06:27:38;;;;;;;160.60;80.80;;;4.30;99.90;;;;;;4975847;28;20047;-79
2023/01/23 06:30:10;;;;;;;178.18;91.45;;;4.30;1.00;;;;;;5006808;28;20047;-79
2023/01/23 06:32:41;;;;;;;186.07;92.95;;;4.30;99.90;;;;;;4990758;28;20137;-79
2023/01/23 06:35:11;;;;;;;194.25;98.18;;;4.30;1.00;;;;;;4965659;28;20052;-82
2023/01/23 06:37:58;;;;;;;216.73;101.00;;;4.30;1.00;;;;;;4979889;28;20081;-80
2023/01/23 06:40:30;;;;;;;218.13;105.15;;;4.20;99.90;;;;;;4980815;28;20075;-80
2023/01/23 06:43:24;;;;;;;203.85;105.80;;;4.10;1.00;;;;;;4967620;28;20042;-80
2023/01/23 06:45:52;;;;;;;207.02;109.53;;;4.00;1.00;;;;;;4967509;28;20515;-80
2023/01/23 06:48:20;;;;;;;202.90;108.10;;;4.00;1.00;;;;;;4989048;28;20047;-80
2023/01/23 06:50:49;;;;;;;206.80;110.47;;;4.10;99.90;;;;;;4964695;28;20518;-82
2023/01/23 06:53:18;;;;;;;212.30;111.88;;;4.20;1.00;;;;;;4946192;28;20091;-78
2023/01/23 06:55:49;;;;;;;206.43;109.65;;;4.20;99.90;;;;;;4967026;28;20071;-79
2023/01/23 06:58:19;;;;;;;189.85;101.53;;;4.20;1.00;;;;;;4962766;28;20102;-78
2023/01/23 07:00:48;;;;;;;234.50;120.20;;;4.30;1.00;;;;;;4979229;28;20073;-78
2023/01/23 07:03:35;;;;;;;202.25;105.07;;;4.30;99.90;;;;;;4965278;28;20087;-80
2023/01/23 07:06:05;;;;;;;235.68;123.22;;;4.40;1.00;;;;;;4945670;28;20086;-79
2023/01/23 07:08:33;;;;;;;237.23;122.05;;;4.50;99.90;;;;;;4960928;28;20039;-81
2023/01/23 07:11:02;;;;;;;103.43;60.90;;;4.50;1.00;;;;;;4975052;28;20043;-79
2023/01/23 07:13:30;;;;;;;103.57;62.33;;;4.60;1.00;;;;;;4982063;28;20038;-82
2023/01/23 07:15:58;;;;;;;106.10;61.65;;;4.60;1.00;;;;;;4977514;28;20074;-79
2023/01/23 07:18:28;;;;;;;200.57;108.60;;;4.70;99.90;;;;;;4970536;28;20071;-77
2023/01/23 07:20:56;;;;;;;203.07;106.70;;;4.70;99.90;;;;;;4968363;28;20113;-78
2023/01/23 07:23:33;;;;;;;184.38;97.18;;;4.70;1.00;;;;;;4965815;28;20077;-79
2023/01/23 07:26:08;;;;;;;174.13;92.47;;;4.80;1.00;;;;;;4966069;28;20081;-81
2023/01/23 07:28:36;;;;;;;195.77;103.70;;;4.80;99.90;;;;;;4964237;28;20039;-79
2023/01/23 07:31:04;;;;;;;183.52;98.25;;;4.70;99.90;;;;;;4978129;28;20035;-84
2023/01/23 07:33:32;;;;;;;177.57;92.25;;;4.70;66.50;;;;;;4982407;28;20102;-81
2023/01/23 07:36:04;;;;;;;188.85;97.47;;;4.70;1.00;;;;;;4970769;28;20166;-80
2023/01/23 07:38:32;;;;;;;204.55;103.03;;;4.60;19.70;;;;;;4968895;28;20576;-80
2023/01/23 07:41:01;;;;;;;175.80;94.55;;;4.60;99.90;;;;;;4974919;28;20284;-80
2023/01/23 07:43:33;;;;;;;166.70;90.40;;;4.60;99.90;;;;;;4968723;28;20148;-80
2023/01/23 07:46:30;;;;;;;134.48;76.60;;;4.70;1.00;;;;;;4989313;28;20039;-79
2023/01/23 07:49:00;;;;;;;149.13;84.65;;;4.70;1.00;;;;;;4977189;28;20062;-83
2023/01/23 07:51:28;;;;;;;214.60;107.60;;;4.80;1.00;;;;;;4978682;28;20038;-81
2023/01/23 07:53:55;;;;;;;230.52;126.35;;;4.80;1.00;;;;;;4975645;28;20047;-81
2023/01/23 07:56:23;;;;;;;245.35;131.45;;;4.80;1.00;;;;;;4967024;28;20770;-81
2023/01/23 07:58:52;;;;;;;222.98;122.75;;;4.80;1.00;;;;;;4969777;28;20247;-80
2023/01/23 08:01:23;;;;;;;221.77;117.22;;;4.80;1.00;;;;;;4973302;28;20043;-80
2023/01/23 08:03:54;;;;;;;241.27;132.32;;;4.90;1.00;;;;;;4972393;28;20046;-82
2023/01/23 08:06:24;;;;;;;228.75;127.53;;;4.90;1.00;;;;;;4965589;28;20039;-79
2023/01/23 08:08:51;;;;;;;229.82;129.38;;;4.90;99.90;;;;;;4964595;28;20050;-78
2023/01/23 08:11:19;;;;;;;229.23;127.82;;;5.00;99.90;;;;;;4965258;28;20083;-78
2023/01/23 08:13:54;;;;;;;218.73;124.03;;;5.00;99.90;;;;;;4961220;28;20043;-78
2023/01/23 08:16:24;;;;;;;238.48;135.57;;;5.00;99.90;;;;;;4991056;28;20067;-80
2023/01/23 08:18:55;;;;;;;245.95;136.10;;;5.00;99.90;;;;;;4968497;28;20400;-81
2023/01/23 08:21:24;;;;;;;229.45;133.65;;;5.10;99.90;;;;;;4989609;28;20610;-81
2023/01/23 08:23:53;;;;;;;226.15;134.77;;;5.20;99.90;;;;;;4991134;28;20055;-81
2023/01/23 08:26:21;;;;;;;216.45;130.00;;;5.20;1.00;;;;;;4965292;28;20043;-80
2023/01/23 08:28:48;;;;;;;218.07;131.80;;;5.20;1.00;;;;;;4964906;28;20106;-79
2023/01/23 08:31:17;;;;;;;235.13;131.65;;;5.20;1.00;;;;;;4983412;28;20047;-80
2023/01/23 08:33:45;;;;;;;226.00;133.43;;;5.30;1.00;;;;;;4981798;28;20058;-80
2023/01/23 08:36:13;;;;;;;174.45;102.53;;;5.30;1.00;;;;;;4980119;28;20085;-80
2023/01/23 08:38:43;;;;;;;183.75;107.45;;;5.30;1.00;;;;;;4974742;28;20066;-79
2023/01/23 08:41:12;;;;;;;189.73;107.03;;;5.30;1.00;;;;;;4968474;28;20050;-79
2023/01/23 08:43:40;;;;;;;180.27;107.57;;;5.30;1.00;;;;;;4972523;28;20134;-80
2023/01/23 08:46:09;;;;;;;171.88;104.60;;;5.40;1.00;;;;;;4978818;28;20053;-79
2023/01/23 08:48:38;;;;;;;189.35;113.45;;;5.40;99.90;;;;;;4975803;28;20065;-79
2023/01/23 08:51:07;;;;;;;195.90;117.35;;;5.40;99.90;;;;;;4966839;28;20044;-79
2023/01/23 08:53:35;;;;;;;225.05;126.70;;;5.40;99.90;;;;;;4962329;28;20045;-77
2023/01/23 08:56:05;;;;;;;227.50;128.30;;;5.50;99.90;;;;;;4963150;28;20103;-76
2023/01/23 08:58:32;;;;;;;184.30;110.18;;;5.50;16.20;;;;;;4966405;28;20045;-78
2023/01/23 09:01:00;;;;;;;208.38;119.63;;;5.50;1.00;;;;;;4966217;28;20081;-80
2023/01/23 09:03:30;;;;;;;219.88;124.85;;;5.40;1.00;;;;;;4960599;28;20082;-78
2023/01/23 09:06:02;;;;;;;174.70;96.97;;;5.30;1.00;;;;;;4967159;28;20090;-78
2023/01/23 09:08:33;;;;;;;167.40;87.53;;;5.20;1.00;;;;;;4964412;28;20093;-79
2023/01/23 09:11:02;;;;;;;159.82;87.30;;;5.10;45.10;;;;;;4963978;28;20114;-78
2023/01/23 09:13:29;;;;;;;156.85;84.07;;;5.10;99.90;;;;;;4962828;28;20043;-78
2023/01/23 09:15:57;;;;;;;163.05;87.07;;;5.10;99.90;;;;;;4966680;28;20045;-79
2023/01/23 09:18:26;;;;;;;163.52;89.88;;;5.10;1.00;;;;;;4971121;28;20070;-77
2023/01/23 09:20:54;;;;;;;171.13;92.72;;;5.10;1.00;;;;;;4969004;28;20047;-77
2023/01/23 09:23:25;;;;;;;178.02;95.82;;;5.00;1.00;;;;;;4968007;28;20055;-78
2023/01/23 09:25:52;;;;;;;150.95;86.53;;;5.10;99.90;;;;;;4960160;28;20042;-75
2023/01/23 09:28:20;;;;;;;145.57;80.88;;;5.00;99.90;;;;;;4957881;28;20071;-77
2023/01/23 09:30:48;;;;;;;146.45;84.22;;;5.00;1.00;;;;;;4961328;28;20051;-78
2023/01/23 09:33:15;;;;;;;156.90;94.38;;;4.70;99.90;;;;;;4963254;28;20066;-75
2023/01/23 09:35:45;;;;;;;164.95;97.53;;;4.60;99.90;;;;;;4969469;28;20043;-75
2023/01/23 09:38:16;;;;;;;157.95;94.55;;;4.70;99.90;;;;;;4966321;28;20113;-76
2023/01/23 09:40:54;;;;;;;148.80;90.18;;;4.80;1.00;;;;;;4965760;28;20044;-76
2023/01/23 09:43:28;;;;;;;132.93;85.53;;;4.90;94.60;;;;;;4968207;28;20054;-77
2023/01/23 09:46:07;;;;;;;130.65;86.78;;;5.00;1.00;;;;;;4965242;28;20050;-77
2023/01/23 09:48:44;;;;;;;158.32;105.70;;;5.00;1.00;;;;;;4972025;28;20047;-75
2023/01/23 09:51:16;;;;;;;165.90;113.45;;;5.00;1.00;;;;;;4976303;28;20035;-78
2023/01/23 09:53:43;;;;;;;167.75;108.53;;;4.90;99.90;;;;;;4961978;28;20039;-76
2023/01/23 09:56:26;;;;;;;157.98;107.57;;;5.00;1.00;;;;;;4965354;28;20130;-74
2023/01/23 09:59:01;;;;;;;150.10;93.70;;;5.20;1.00;;;;;;4968038;28;20173;-75
2023/01/23 10:01:30;;;;;;;128.32;79.88;;;5.30;99.90;;;;;;4961580;28;20499;-77
2023/01/23 10:03:59;;;;;;;137.30;84.35;;;5.50;1.00;;;;;;4965158;28;20098;-75
2023/01/23 10:06:30;;;;;;;149.98;90.18;;;5.50;1.00;;;;;;4967422;28;20502;-78
2023/01/23 10:09:26;;;;;;;138.60;86.57;;;5.60;1.00;;;;;;4966672;28;20093;-79
2023/01/23 10:12:24;;;;;;;126.40;78.32;;;5.70;99.90;;;;;;4965575;28;20566;-79
2023/01/23 10:15:05;;;;;;;142.98;87.00;;;5.90;73.50;;;;;;4965778;28;20034;-76
2023/01/23 10:17:41;;;;;;;153.32;93.65;;;6.10;1.00;;;;;;4964659;28;20113;-78
2023/01/23 10:20:29;;;;;;;159.13;98.32;;;6.30;1.00;;;;;;4962856;28;20113;-74
2023/01/23 10:23:06;;;;;;;152.90;94.50;;;6.40;1.00;;;;;;4978574;28;20055;-78
2023/01/23 10:25:41;;;;;;;133.48;84.68;;;6.40;99.90;;;;;;4980783;28;20053;-75
2023/01/23 10:28:28;;;;;;;132.18;80.88;;;6.20;1.00;;;;;;4998487;28;20066;-73
2023/01/23 10:31:00;;;;;;;144.80;89.15;;;6.10;99.90;;;;;;4963959;28;20047;-77
2023/01/23 10:33:36;;;;;;;134.30;86.28;;;6.10;1.00;;;;;;4964987;28;20468;-75
2023/01/23 10:36:06;;;;;;;;;;;6.10;1.00;;;;;;4978616;28;20087;-75
2023/01/23 10:38:39;;;;;;;143.95;89.68;;;6.10;1.00;;;;;;4980468;28;19945;-77
2023/01/23 10:41:18;;;;;;;142.60;92.22;;;6.30;1.00;;;;;;4960676;28;20178;-75
2023/01/23 10:43:50;;;;;;;141.70;87.28;;;6.40;99.90;;;;;;4965497;28;20110;-78
2023/01/23 10:46:20;;;;;;;138.15;89.82;;;6.50;1.00;;;;;;4963145;28;20106;-77
2023/01/23 10:48:49;;;;;;;149.65;93.72;;;6.40;1.00;;;;;;4962791;28;20260;-76
2023/01/23 10:51:33;;;;;;;143.80;92.65;;;6.30;1.00;;;;;;4965994;28;20513;-76
2023/01/23 10:54:05;;;;;;;145.00;91.15;;;6.50;99.90;;;;;;4964746;28;20457;-75
2023/01/23 10:56:35;;;;;;;141.48;92.55;;;6.50;99.90;;;;;;4965180;28;20126;-76
2023/01/23 10:59:06;;;;;;;141.27;92.88;;;6.60;1.00;;;;;;4962963;28;20099;-76
2023/01/23 11:01:36;;;;;;;136.60;91.53;;;6.70;99.90;;;;;;4960255;28;20043;-76
2023/01/23 11:04:17;;;;;;;142.65;90.15;;;6.80;99.90;;;;;;4961546;28;20044;-76
2023/01/23 11:06:45;;;;;;;133.80;85.07;;;6.80;99.90;;;;;;4964649;28;20042;-76
2023/01/23 11:09:20;;;;;;;136.45;88.43;;;6.90;99.90;;;;;;4961772;28;20034;-79
2023/01/23 11:12:04;;;;;;;135.82;88.68;;;7.00;1.00;;;;;;4962058;28;20070;-77
2023/01/23 11:14:33;;;;;;;133.52;87.93;;;7.10;1.00;;;;;;4962344;28;20475;-75
2023/01/23 11:17:18;;;;;;;124.38;83.78;;;7.10;1.00;;;;;;4968371;28;20027;-77
2023/01/23 11:19:48;;;;;;;125.83;81.37;;;7.20;1.00;;;;;;4971127;28;20138;-76
2023/01/23 11:22:30;;;;;;;126.07;82.25;;;7.30;1.00;;;;;;4961269;28;20035;-76
2023/01/23 11:25:24;;;;;;;132.45;89.10;;;7.30;1.00;;;;;;4958803;28;20051;-76
2023/01/23 11:27:58;;;;;;;142.93;91.93;;;7.30;1.00;;;;;;4956507;28;20070;-77
2023/01/23 11:30:45;;;;;;;140.88;94.00;;;7.20;99.90;;;;;;4955356;28;20407;-77
2023/01/23 11:33:21;;;;;;;134.88;88.90;;;7.30;1.00;;;;;;4966167;28;20059;-78
2023/01/23 11:36:04;;;;;;;139.13;92.82;;;7.30;99.90;;;;;;4961496;28;20062;-76
2023/01/23 11:38:40;;;;;;;144.95;93.97;;;7.40;1.00;;;;;;4968449;28;20043;-75
2023/01/23 11:41:17;;;;;;;143.60;94.45;;;7.50;99.90;;;;;;4964784;28;20050;-77
2023/01/23 11:43:44;;;;;;;146.63;95.68;;;7.50;99.90;;;;;;4963256;28;20097;-74
2023/01/23 11:46:47;;;;;;;151.10;99.45;;;7.60;99.90;;;;;;4963578;28;20054;-75
2023/01/23 11:49:28;;;;;;;151.13;95.97;;;7.60;99.90;;;;;;4960848;28;20053;-75
2023/01/23 11:52:08;;;;;;;142.35;95.05;;;7.60;1.00;;;;;;4976510;28;20047;-74
2023/01/23 11:54:58;;;;;;;142.63;94.90;;;7.60;92.60;;;;;;4961555;28;20121;-73
2023/01/23 11:57:36;;;;;;;147.13;94.13;;;7.60;99.90;;;;;;4961541;28;20119;-76
2023/01/23 12:00:22;;;;;;;146.38;99.47;;;7.60;99.90;;;;;;4963042;28;20093;-76
2023/01/23 12:03:12;;;;;;;;;;;7.70;99.90;;;;;;4962719;28;20125;-75
2023/01/23 12:06:14;;;;;;;156.60;98.10;;;7.60;34.90;;;;;;4963667;28;19968;-75
2023/01/23 12:08:49;;;;;;;154.27;98.57;;;7.60;99.90;;;;;;4928292;28;20086;-76
2023/01/23 12:11:19;;;;;;;156.85;103.88;;;7.60;99.90;;;;;;4963943;28;20396;-78
2023/01/23 12:14:10;;;;;;;153.80;102.20;;;7.50;99.90;;;;;;4963590;28;20121;-76
2023/01/23 12:16:55;;;;;;;164.70;104.90;;;7.40;99.90;;;;;;4964820;28;20644;-76
2023/01/23 12:19:34;;;;;;;151.15;97.53;;;7.40;1.00;;;;;;4963621;28;20089;-76
2023/01/23 12:22:10;;;;;;;152.38;99.60;;;7.50;1.00;;;;;;4963986;28;20051;-76
2023/01/23 12:24:53;;;;;;;160.40;100.55;;;7.50;1.00;;;;;;4962933;28;20047;-76
2023/01/23 12:27:30;;;;;;;156.98;96.50;;;7.50;1.00;;;;;;4964615;28;20428;-78
2023/01/23 12:30:25;;;;;;;175.05;105.38;;;7.40;99.90;;;;;;4960273;28;20043;-76
2023/01/23 12:33:02;;;;;;;165.77;102.90;;;7.30;1.00;;;;;;4958196;28;20043;-75
2023/01/23 12:35:47;;;;;;;164.77;104.75;;;7.10;1.00;;;;;;4962098;28;20062;-74
2023/01/23 12:38:26;;;;;;;178.55;108.82;;;7.00;99.90;;;;;;4962927;28;20463;-74
2023/01/23 12:41:06;;;;;;;185.60;116.35;;;6.90;69.00;;;;;;4977341;28;20035;-74
2023/01/23 12:43:40;;;;;;;232.98;146.60;;;6.80;1.00;;;;;;4984189;28;20099;-78
2023/01/23 12:46:15;;;;;;;221.63;146.82;;;6.80;1.00;;;;;;4968724;28;20070;-74
2023/01/23 12:48:48;;;;;;;248.50;170.13;;;6.70;99.90;;;;;;4983371;28;20132;-75
2023/01/23 12:51:21;;;;;;;257.30;172.90;;;6.70;99.90;;;;;;4962614;28;20050;-75
2023/01/23 12:53:52;;;;;;;247.43;164.52;;;6.70;99.90;;;;;;4962038;28;20122;-75
2023/01/23 12:56:24;;;;;;;233.25;155.30;;;6.80;99.90;;;;;;4964567;28;20130;-74
2023/01/23 12:58:57;;;;;;;233.15;154.63;;;6.80;99.90;;;;;;4964268;28;20098;-75
2023/01/23 13:01:40;;;;;;;237.52;153.15;;;6.80;1.00;;;;;;4959947;28;20043;-75
2023/01/23 13:04:20;;;;;;;224.18;146.45;;;6.80;99.90;;;;;;4984506;28;20047;-79
2023/01/23 13:07:21;;;;;;;218.77;144.98;;;6.80;99.90;;;;;;4959602;28;20045;-77
2023/01/23 13:10:05;;;;;;;205.10;133.07;;;6.60;99.90;;;;;;4950180;28;20057;-74
2023/01/23 13:12:33;;;;;;;176.95;119.22;;;6.60;1.00;;;;;;4978760;28;20043;-77